createdAt,value
2022-11-24T00:00:00.721Z,58.1
2022-11-24T00:01:17.132Z,56.7
2022-11-24T00:02:33.549Z,59.2
2022-11-24T00:03:49.955Z,62.8
2022-11-24T00:05:06.372Z,70.2
2022-11-24T00:06:22.776Z,59.6
2022-11-24T00:08:55.602Z,56.5
2022-11-24T00:10:12.024Z,59.6
2022-11-24T00:12:44.833Z,60.7
2022-11-24T00:14:01.240Z,61.5
2022-11-24T00:15:17.660Z,62.6
2022-11-24T00:16:34.065Z,59.2
2022-11-24T00:17:49.611Z,61.2
2022-11-24T00:19:04.976Z,58.9
2022-11-24T00:20:20.236Z,58.4
2022-11-24T00:21:36.464Z,59.7
2022-11-24T00:22:52.699Z,58.4
2022-11-24T00:24:08.943Z,59.2
2022-11-24T00:25:24.192Z,60.9
2022-11-24T00:26:39.432Z,59.7
2022-11-24T00:27:55.687Z,57.2
2022-11-24T00:29:11.904Z,58.4
2022-11-24T00:30:28.152Z,59.4
2022-11-24T00:31:44.392Z,59.7
2022-11-24T00:33:00.624Z,60.1
2022-11-24T00:34:16.868Z,57
2022-11-24T00:35:33.094Z,58.6
2022-11-24T00:36:49.320Z,61.2
2022-11-24T00:38:05.562Z,57.2
2022-11-24T00:39:20.812Z,60.1
2022-11-24T00:40:36.071Z,59.1
2022-11-24T00:41:52.309Z,57.2
2022-11-24T00:43:08.543Z,58.3
2022-11-24T00:44:24.780Z,58
2022-11-24T00:45:41.012Z,57.3
2022-11-24T00:46:57.253Z,57.6
2022-11-24T00:48:12.520Z,58.6
2022-11-24T00:49:28.732Z,63
2022-11-24T00:50:44.987Z,57.6
2022-11-24T00:52:01.212Z,59.2
2022-11-24T00:53:16.474Z,60.4
2022-11-24T00:54:31.711Z,57.6
2022-11-24T00:55:47.964Z,59.7
2022-11-24T00:57:04.192Z,56.8
2022-11-24T00:58:20.422Z,54.7
2022-11-24T00:59:36.669Z,58.9
2022-11-24T01:00:52.901Z,59.1
2022-11-24T01:02:09.137Z,61.7
2022-11-24T01:03:25.376Z,59.7
2022-11-24T01:04:41.613Z,59.1
2022-11-24T01:05:57.843Z,58.1
2022-11-24T01:07:14.068Z,59.4
2022-11-24T01:08:30.322Z,56.5
2022-11-24T01:09:46.548Z,59.9
2022-11-24T01:11:01.816Z,59.7
2022-11-24T01:12:18.036Z,58.6
2022-11-24T01:13:34.260Z,59.7
2022-11-24T01:14:50.518Z,59.7
2022-11-24T01:16:06.751Z,60.4
2022-11-24T01:17:22.976Z,61.7
2022-11-24T01:18:39.214Z,59.7
2022-11-24T01:19:54.470Z,60.7
2022-11-24T01:21:09.720Z,59.7
2022-11-24T01:22:24.995Z,58.3
2022-11-24T01:23:40.245Z,59.7
2022-11-24T01:24:55.481Z,58.4
2022-11-24T01:26:10.746Z,60.9
2022-11-24T01:27:26.976Z,62
2022-11-24T01:28:43.212Z,61.5
2022-11-24T01:29:59.449Z,60.2
2022-11-24T01:31:15.674Z,62.5
2022-11-24T01:32:31.903Z,59.1
2022-11-24T01:33:48.151Z,60.9
2022-11-24T01:35:04.405Z,58.4
2022-11-24T01:36:20.628Z,59.1
2022-11-24T01:37:36.868Z,62
2022-11-24T01:38:53.088Z,59.9
2022-11-24T01:40:09.331Z,59.4
2022-11-24T01:41:25.571Z,58.4
2022-11-24T01:42:40.815Z,59.1
2022-11-24T01:43:57.062Z,60.7
2022-11-24T01:45:13.287Z,61.2
2022-11-24T01:46:29.542Z,60.7
2022-11-24T01:47:45.768Z,60.9
2022-11-24T01:49:02.005Z,61.3
2022-11-24T01:50:18.235Z,60.1
2022-11-24T01:51:33.492Z,58.6
2022-11-24T01:52:48.743Z,58.1
2022-11-24T01:54:04.014Z,56.3
2022-11-24T01:55:19.244Z,61.3
2022-11-24T01:56:35.481Z,58.9
2022-11-24T01:57:51.727Z,58.3
2022-11-24T01:59:07.952Z,59.4
2022-11-24T02:00:24.201Z,57.3
2022-11-24T02:01:40.435Z,63
2022-11-24T02:02:56.677Z,61.2
2022-11-24T02:04:12.892Z,59.7
2022-11-24T02:05:29.141Z,58.4
2022-11-24T02:06:45.377Z,61
2022-11-24T02:08:01.615Z,61.7
2022-11-24T02:09:17.844Z,62.8
2022-11-24T02:10:34.068Z,59.6
2022-11-24T02:11:49.321Z,62.1
2022-11-24T02:13:05.573Z,57.2
2022-11-24T02:14:21.789Z,58.9
2022-11-24T02:15:38.040Z,60.2
2022-11-24T02:16:54.269Z,60.2
2022-11-24T02:18:10.492Z,62
2022-11-24T02:19:26.740Z,60.1
2022-11-24T02:20:42.009Z,62
2022-11-24T02:21:57.249Z,61.2
2022-11-24T02:23:13.472Z,58.4
2022-11-24T02:24:29.730Z,60.7
2022-11-24T02:25:45.966Z,60.2
2022-11-24T02:27:02.195Z,61
2022-11-24T02:28:18.448Z,60.5
2022-11-24T02:29:34.664Z,60.1
2022-11-24T02:30:50.897Z,58.8
2022-11-24T02:32:07.144Z,58
2022-11-24T02:33:23.371Z,59.9
2022-11-24T02:34:39.604Z,59.1
2022-11-24T02:35:55.849Z,56.3
2022-11-24T02:37:12.089Z,62
2022-11-24T02:38:27.336Z,58.8
2022-11-24T02:39:43.570Z,60.7
2022-11-24T02:40:59.794Z,59.7
2022-11-24T02:42:16.047Z,58.8
2022-11-24T02:43:32.258Z,61.5
2022-11-24T02:44:48.513Z,58.1
2022-11-24T02:46:04.736Z,62.5
2022-11-24T02:47:20.017Z,59.7
2022-11-24T02:48:35.268Z,59.6
2022-11-24T02:49:50.520Z,59.4
2022-11-24T02:51:05.770Z,59.4
2022-11-24T02:52:22.001Z,59.2
2022-11-24T02:53:38.219Z,56
2022-11-24T02:54:54.476Z,56.8
2022-11-24T02:56:10.699Z,62.5
2022-11-24T02:57:26.938Z,61.2
2022-11-24T02:58:43.177Z,60.2
2022-11-24T02:59:59.427Z,59.2
2022-11-24T03:01:15.664Z,66
2022-11-24T03:02:31.882Z,59.7
2022-11-24T03:03:48.125Z,59.2
2022-11-24T03:05:04.353Z,60.2
2022-11-24T03:06:20.596Z,58.6
2022-11-24T03:07:35.846Z,60.5
2022-11-24T03:08:52.079Z,64.1
2022-11-24T03:10:08.317Z,60.7
2022-11-24T03:11:24.540Z,63.3
2022-11-24T03:12:40.776Z,60.1
2022-11-24T03:13:57.012Z,60.7
2022-11-24T03:15:13.248Z,60.2
2022-11-24T03:16:28.514Z,61
2022-11-24T03:17:43.765Z,60.9
2022-11-24T03:19:00.008Z,60.2
2022-11-24T03:20:16.233Z,60.1
2022-11-24T03:21:32.477Z,58.9
2022-11-24T03:22:48.705Z,60.4
2022-11-24T03:24:04.936Z,60.5
2022-11-24T03:25:21.194Z,60.7
2022-11-24T03:26:37.424Z,60.2
2022-11-24T03:27:53.662Z,60.2
2022-11-24T03:29:09.900Z,60.4
2022-11-24T03:30:26.105Z,61.2
2022-11-24T03:31:42.356Z,61.3
2022-11-24T03:32:58.602Z,61.3
2022-11-24T03:34:13.828Z,61.7
2022-11-24T03:35:30.074Z,62.1
2022-11-24T03:36:46.298Z,60.4
2022-11-24T03:38:02.549Z,59.6
2022-11-24T03:39:18.774Z,60.2
2022-11-24T03:40:35.019Z,61.5
2022-11-24T03:41:51.253Z,59.1
2022-11-24T03:43:06.503Z,57.2
2022-11-24T03:44:21.763Z,58.8
2022-11-24T03:45:38.008Z,59.2
2022-11-24T03:46:54.223Z,60.5
2022-11-24T03:48:10.466Z,59.7
2022-11-24T03:49:26.701Z,60.7
2022-11-24T03:50:42.927Z,61.5
2022-11-24T03:51:59.165Z,61.8
2022-11-24T03:53:15.413Z,59.9
2022-11-24T03:54:31.648Z,61.8
2022-11-24T03:55:47.884Z,62
2022-11-24T03:57:04.116Z,59.9
2022-11-24T03:58:20.367Z,61
2022-11-24T03:59:36.577Z,59.2
2022-11-24T04:00:51.835Z,60.1
2022-11-24T04:02:08.082Z,60.2
2022-11-24T04:03:24.320Z,61.5
2022-11-24T04:04:40.550Z,60.4
2022-11-24T04:05:56.767Z,60.2
2022-11-24T04:07:13.030Z,59.7
2022-11-24T04:08:29.237Z,63.1
2022-11-24T04:09:45.494Z,60.9
2022-11-24T04:11:01.738Z,61.2
2022-11-24T04:12:17.953Z,62
2022-11-24T04:13:34.205Z,60.1
2022-11-24T04:14:50.413Z,61.7
2022-11-24T04:16:06.666Z,59.9
2022-11-24T04:17:21.934Z,60.1
2022-11-24T04:18:38.154Z,60.2
2022-11-24T04:19:54.398Z,60.2
2022-11-24T04:21:10.622Z,59.9
2022-11-24T04:22:26.844Z,60.5
2022-11-24T04:23:43.107Z,59.2
2022-11-24T04:24:59.349Z,61.7
2022-11-24T04:26:15.576Z,59.4
2022-11-24T04:27:31.815Z,60.9
2022-11-24T04:28:48.022Z,63.9
2022-11-24T04:30:04.283Z,60.7
2022-11-24T04:31:20.512Z,59.9
2022-11-24T04:32:36.760Z,60.5
2022-11-24T04:33:52.010Z,60.4
2022-11-24T04:35:08.243Z,60.5
2022-11-24T04:36:24.466Z,60.9
2022-11-24T04:37:40.715Z,60.2
2022-11-24T04:38:56.936Z,60.5
2022-11-24T04:40:13.189Z,61.2
2022-11-24T04:41:29.423Z,61.2
2022-11-24T04:42:45.652Z,59.1
2022-11-24T04:44:01.883Z,61.5
2022-11-24T04:45:18.118Z,59.4
2022-11-24T04:46:34.349Z,60.5
2022-11-24T04:47:50.572Z,63
2022-11-24T04:49:06.829Z,60.7
2022-11-24T04:50:22.081Z,60.7
2022-11-24T04:51:38.314Z,61.8
2022-11-24T04:52:54.543Z,60.7
2022-11-24T04:54:10.773Z,61.3
2022-11-24T04:55:27.023Z,59.6
2022-11-24T04:56:43.257Z,59.6
2022-11-24T04:57:59.499Z,61.7
2022-11-24T04:59:15.720Z,60.7
2022-11-24T05:00:31.954Z,60.4
2022-11-24T05:01:48.195Z,62.3
2022-11-24T05:03:03.465Z,62.6
2022-11-24T05:04:19.695Z,63.1
2022-11-24T05:05:35.915Z,62
2022-11-24T05:06:52.159Z,61.2
2022-11-24T05:08:08.388Z,61.5
2022-11-24T05:09:24.611Z,63.4
2022-11-24T05:10:40.879Z,63.3
2022-11-24T05:11:57.094Z,61.3
2022-11-24T05:13:13.325Z,61.5
2022-11-24T05:14:29.549Z,62
2022-11-24T05:15:45.795Z,61.2
2022-11-24T05:17:02.040Z,60.7
2022-11-24T05:18:18.265Z,60.9
2022-11-24T05:19:33.536Z,61.7
2022-11-24T05:20:49.760Z,61.7
2022-11-24T05:22:06.001Z,62.1
2022-11-24T05:23:22.248Z,62.8
2022-11-24T05:24:38.449Z,61.2
2022-11-24T05:25:54.701Z,62.8
2022-11-24T05:27:10.939Z,62.8
2022-11-24T05:28:27.157Z,61.7
2022-11-24T05:29:43.408Z,60.7
2022-11-24T05:30:59.628Z,62.3
2022-11-24T05:32:15.865Z,61.2
2022-11-24T05:33:32.113Z,61
2022-11-24T05:34:48.367Z,62.5
2022-11-24T05:36:03.606Z,61.5
2022-11-24T05:37:19.847Z,62.6
2022-11-24T05:38:36.061Z,64.2
2022-11-24T05:39:52.317Z,62.1
2022-11-24T05:41:08.547Z,63
2022-11-24T05:42:24.789Z,63.3
2022-11-24T05:43:41.020Z,59.9
2022-11-24T05:44:57.230Z,62.1
2022-11-24T05:46:13.481Z,61.8
2022-11-24T05:47:29.730Z,60.7
2022-11-24T05:48:45.970Z,61.5
2022-11-24T05:50:02.197Z,64.2
2022-11-24T05:51:18.424Z,61.8
2022-11-24T05:52:33.689Z,61.8
2022-11-24T05:53:49.894Z,63.6
2022-11-24T05:55:06.149Z,62.1
2022-11-24T05:56:22.375Z,63
2022-11-24T05:57:38.626Z,62.5
2022-11-24T05:58:54.856Z,62.1
2022-11-24T06:00:11.089Z,62.3
2022-11-24T06:01:27.322Z,63.8
2022-11-24T06:02:43.574Z,62.1
2022-11-24T06:03:59.800Z,62.1
2022-11-24T06:05:16.032Z,61.2
2022-11-24T06:06:32.246Z,60.2
2022-11-24T06:07:48.505Z,63.1
2022-11-24T06:09:03.750Z,63.3
2022-11-24T06:10:19.975Z,60.7
2022-11-24T06:11:36.232Z,61
2022-11-24T06:12:52.464Z,60.4
2022-11-24T06:14:08.706Z,62.3
2022-11-24T06:15:24.915Z,62.5
2022-11-24T06:16:41.160Z,62
2022-11-24T06:17:57.396Z,61.7
2022-11-24T06:19:13.618Z,61.7
2022-11-24T06:21:46.103Z,63.8
2022-11-24T06:23:02.338Z,61.7
2022-11-24T06:24:18.559Z,63.1
2022-11-24T06:28:07.273Z,63.8
2022-11-24T06:29:23.505Z,61.7
2022-11-24T06:31:56.126Z,62.5
2022-11-24T06:33:11.374Z,63.3
2022-11-24T06:34:26.619Z,62.5
2022-11-24T06:35:42.870Z,63.8
2022-11-24T06:36:59.098Z,63
2022-11-24T06:38:15.341Z,62
2022-11-24T06:40:47.794Z,63.4
2022-11-24T06:42:04.045Z,64.2
2022-11-24T06:43:20.281Z,62.3
2022-11-24T06:44:36.499Z,62.1
2022-11-24T06:45:52.751Z,63.1
2022-11-24T06:47:08.975Z,61.5
2022-11-24T06:48:25.220Z,63.4
2022-11-24T06:49:41.452Z,62.8
2022-11-24T06:50:56.709Z,62.5
2022-11-24T06:52:12.931Z,62.1
2022-11-24T06:53:29.171Z,62.8
2022-11-24T06:54:45.403Z,62.1
2022-11-24T06:56:01.635Z,62.3
2022-11-24T06:57:17.879Z,64.9
2022-11-24T06:58:34.109Z,62.8
2022-11-24T06:59:50.353Z,64.1
2022-11-24T07:01:06.576Z,62
2022-11-24T07:02:22.812Z,62.8
2022-11-24T07:03:38.086Z,62.1
2022-11-24T07:04:54.318Z,62.1
2022-11-24T07:06:09.561Z,61.8
2022-11-24T07:07:24.821Z,61.3
2022-11-24T07:08:41.045Z,61.8
2022-11-24T07:09:57.287Z,61.2
2022-11-24T07:11:13.519Z,63.1
2022-11-24T07:12:29.769Z,64.1
2022-11-24T07:13:46.003Z,63.9
2022-11-24T07:15:02.220Z,63.3
2022-11-24T07:16:18.471Z,62.5
2022-11-24T07:17:34.702Z,61.2
2022-11-24T07:18:50.926Z,62.6
2022-11-24T07:20:07.182Z,62.1
2022-11-24T07:21:23.397Z,62.6
2022-11-24T07:22:39.634Z,62.8
2022-11-24T07:23:54.881Z,64.2
2022-11-24T07:25:11.128Z,64.9
2022-11-24T07:26:27.368Z,63.8
2022-11-24T07:27:43.595Z,64.4
2022-11-24T07:28:59.823Z,64.9
2022-11-24T07:30:16.076Z,63.6
2022-11-24T07:31:32.292Z,66.2
2022-11-24T07:32:47.569Z,64.1
2022-11-24T07:34:02.818Z,64.6
2022-11-24T07:35:18.068Z,64.1
2022-11-24T07:36:34.301Z,63.8
2022-11-24T07:37:49.549Z,63.8
2022-11-24T07:39:05.796Z,62.8
2022-11-24T07:40:22.028Z,63.8
2022-11-24T07:41:38.269Z,64.7
2022-11-24T07:42:54.497Z,63.1
2022-11-24T07:44:10.727Z,64.7
2022-11-24T07:45:26.973Z,63.1
2022-11-24T07:47:59.436Z,64.2
2022-11-24T07:49:15.680Z,64.2
2022-11-24T07:50:31.898Z,62.5
2022-11-24T07:51:48.133Z,61.7
2022-11-24T07:53:04.386Z,63.1
2022-11-24T07:54:19.625Z,62.6
2022-11-24T07:55:35.867Z,59.6
2022-11-24T07:56:52.102Z,61.5
2022-11-24T07:58:08.335Z,62.3
2022-11-24T07:59:24.568Z,64.7
2022-11-24T08:00:40.809Z,61.7
2022-11-24T08:01:57.031Z,63.4
2022-11-24T08:03:12.288Z,63
2022-11-24T08:04:27.546Z,61.3
2022-11-24T08:05:42.803Z,63.9
2022-11-24T08:10:47.755Z,63.3
2022-11-24T08:12:03.977Z,62.1
2022-11-24T08:13:19.227Z,61.2
2022-11-24T08:14:30.087Z,61.5
2022-11-24T08:15:49.746Z,61.8
2022-11-24T08:17:00.591Z,64.7
2022-11-24T08:18:20.250Z,62.3
2022-11-24T08:19:35.499Z,63.1
2022-11-24T08:20:47.335Z,64.1
2022-11-24T08:22:07.964Z,62.1
2022-11-24T08:23:19.813Z,62.1
2022-11-24T08:24:36.038Z,61.3
2022-11-24T08:25:56.684Z,62.8
2022-11-24T08:27:12.904Z,64.1
2022-11-24T08:28:29.143Z,63.3
2022-11-24T08:29:40.983Z,62.6
2022-11-24T08:30:57.212Z,62.3
2022-11-24T08:32:13.462Z,63
2022-11-24T08:33:29.697Z,62
2022-11-24T08:34:50.323Z,62.5
2022-11-24T08:36:05.582Z,61.5
2022-11-24T08:37:17.409Z,60.2
2022-11-24T08:38:38.036Z,61.8
2022-11-24T08:39:49.876Z,61.7
2022-11-24T08:41:10.514Z,62.5
2022-11-24T08:42:26.755Z,61.2
2022-11-24T08:43:38.586Z,60.7
2022-11-24T08:44:53.840Z,61.3
2022-11-24T08:46:09.100Z,61.2
2022-11-24T08:47:25.333Z,61.7
2022-11-24T08:48:41.555Z,61.5
2022-11-24T08:49:57.804Z,62.8
2022-11-24T08:51:18.434Z,61.8
2022-11-24T08:52:34.000Z,62.8
2022-11-24T08:53:50.900Z,62
2022-11-24T08:55:02.730Z,61.2
2022-11-24T08:56:23.382Z,60.9
2022-11-24T08:57:39.608Z,58
2022-11-24T08:58:51.449Z,60.5
2022-11-24T09:00:07.674Z,63.3
2022-11-24T09:01:28.315Z,61.2
2022-11-24T09:02:39.168Z,61.2
2022-11-24T09:03:59.811Z,61.3
2022-11-24T09:05:16.033Z,60.9
2022-11-24T09:06:32.266Z,61.8
2022-11-24T09:07:44.112Z,61.7
2022-11-24T09:09:00.342Z,61.5
2022-11-24T09:11:32.812Z,62.1
2022-11-24T09:12:52.466Z,61.5
2022-11-24T09:14:07.713Z,61.7
2022-11-24T09:15:19.564Z,63.9
2022-11-24T09:16:40.190Z,62.1
2022-11-24T09:17:51.047Z,60.1
2022-11-24T09:19:07.281Z,61.7
2022-11-24T09:20:27.908Z,60.2
2022-11-24T09:21:39.745Z,60.2
2022-11-24T09:22:55.978Z,60.4
2022-11-24T09:24:12.216Z,59.2
2022-11-24T09:25:28.456Z,61
2022-11-24T09:26:49.083Z,61.3
2022-11-24T09:28:05.320Z,59.7
2022-11-24T09:29:21.553Z,60.7
2022-11-24T09:30:33.400Z,60.4
2022-11-24T09:31:54.028Z,60.5
2022-11-24T09:33:05.874Z,60.7
2022-11-24T09:34:21.127Z,61.2
2022-11-24T09:35:37.340Z,59.4
2022-11-24T09:36:53.583Z,61.8
2022-11-24T09:38:09.817Z,60.2
2022-11-24T09:39:25.073Z,62.3
2022-11-24T09:40:40.329Z,61.7
2022-11-24T09:41:59.975Z,61.5
2022-11-24T09:43:15.230Z,59.6
2022-11-24T09:44:30.502Z,61.3
2022-11-24T09:45:41.343Z,61.2
2022-11-24T09:46:57.573Z,61
2022-11-24T09:48:13.813Z,59.1
2022-11-24T09:49:30.039Z,60.5
2022-11-24T09:50:50.679Z,61
2022-11-24T09:52:02.515Z,61.2
2022-11-24T09:53:18.748Z,61
2022-11-24T09:54:34.988Z,59.2
2022-11-24T09:55:51.219Z,59.1
2022-11-24T09:57:07.447Z,60.2
2022-11-24T09:58:28.083Z,63
2022-11-24T09:59:39.922Z,60.4
2022-11-24T10:00:56.158Z,60.7
2022-11-24T10:02:11.410Z,60.9
2022-11-24T10:03:27.645Z,60.7
2022-11-24T10:04:48.276Z,60.4
2022-11-24T10:06:04.516Z,60.4
2022-11-24T10:07:20.745Z,59.7
2022-11-24T10:08:32.588Z,61
2022-11-24T10:09:53.231Z,62
2022-11-24T10:11:05.057Z,60.7
2022-11-24T10:12:20.310Z,60.2
2022-11-24T10:13:39.958Z,59.4
2022-11-24T10:14:50.829Z,58.8
2022-11-24T10:16:06.073Z,59.4
2022-11-24T10:17:25.721Z,62.3
2022-11-24T10:18:36.581Z,58.8
2022-11-24T10:19:51.825Z,58.8
2022-11-24T10:21:11.481Z,58.1
2022-11-24T10:22:23.311Z,58.8
2022-11-24T10:23:39.560Z,58.9
2022-11-24T10:24:55.800Z,58.9
2022-11-24T10:26:12.024Z,59.6
2022-11-24T10:27:28.258Z,58.8
2022-11-24T10:28:44.502Z,59.2
2022-11-24T10:30:05.123Z,59.4
2022-11-24T10:31:21.361Z,58.6
2022-11-24T10:32:33.195Z,57.8
2022-11-24T10:33:49.434Z,59.7
2022-11-24T10:35:05.661Z,59.6
2022-11-24T10:36:26.304Z,58.8
2022-11-24T10:37:37.159Z,59.7
2022-11-24T10:38:57.796Z,59.7
2022-11-24T10:40:09.623Z,59.1
2022-11-24T10:41:25.867Z,57.3
2022-11-24T10:42:46.486Z,57.8
2022-11-24T10:43:58.326Z,58.8
2022-11-24T10:45:14.560Z,57.3
2022-11-24T10:46:29.816Z,58.1
2022-11-24T10:47:45.062Z,57.8
2022-11-24T10:49:00.335Z,56.7
2022-11-24T10:50:15.587Z,57.2
2022-11-24T10:51:30.831Z,59.1
2022-11-24T10:52:46.078Z,59.9
2022-11-24T10:54:02.321Z,58.1
2022-11-24T10:55:18.546Z,58.3
2022-11-24T10:56:34.784Z,57.2
2022-11-24T10:57:55.421Z,57.8
2022-11-24T10:59:11.651Z,58
2022-11-24T11:00:27.886Z,58.1
2022-11-24T11:01:39.730Z,59.1
2022-11-24T11:02:55.958Z,59.4
2022-11-24T11:04:12.198Z,57.5
2022-11-24T11:05:28.434Z,56.5
2022-11-24T11:06:49.077Z,57.5
2022-11-24T11:08:05.300Z,57.3
2022-11-24T11:09:16.155Z,58.4
2022-11-24T11:10:32.379Z,58
2022-11-24T11:11:48.630Z,57.6
2022-11-24T11:13:04.849Z,58.9
2022-11-24T11:14:25.493Z,57.3
2022-11-24T11:15:41.726Z,56.3
2022-11-24T11:16:53.557Z,56.5
2022-11-24T11:18:08.830Z,56.5
2022-11-24T11:19:24.072Z,57.2
2022-11-24T11:20:43.725Z,56.3
2022-11-24T11:21:58.975Z,56.5
2022-11-24T11:23:15.212Z,55.1
2022-11-24T11:24:27.040Z,54.7
2022-11-24T11:25:47.680Z,54.1
2022-11-24T11:26:59.521Z,55.7
2022-11-24T11:28:15.747Z,52.8
2022-11-24T11:29:36.379Z,54.6
2022-11-24T11:30:48.229Z,54.1
2022-11-24T11:32:04.461Z,55.1
2022-11-24T11:33:25.097Z,56.5
2022-11-24T11:34:36.932Z,56
2022-11-24T11:35:57.549Z,55.5
2022-11-24T11:37:13.785Z,54.9
2022-11-24T11:38:29.047Z,54.7
2022-11-24T11:39:40.888Z,54.6
2022-11-24T11:41:01.513Z,55.4
2022-11-24T11:42:13.351Z,55.2
2022-11-24T11:44:50.212Z,55.4
2022-11-24T11:46:06.449Z,54.7
2022-11-24T11:47:22.690Z,56.2
2022-11-24T11:48:33.539Z,55.2
2022-11-24T11:49:48.804Z,56
2022-11-24T11:51:09.419Z,57
2022-11-24T11:52:24.693Z,56.7
2022-11-24T11:53:39.940Z,55.9
2022-11-24T11:54:56.000Z,56
2022-11-24T11:56:08.008Z,55.5
2022-11-24T11:57:24.233Z,56.3
2022-11-24T11:58:40.474Z,56.7
2022-11-24T12:00:01.102Z,56.8
2022-11-24T12:01:17.339Z,57.5
2022-11-24T12:02:29.171Z,58
2022-11-24T12:03:49.000Z,55.7
2022-11-24T12:05:01.646Z,56.7
2022-11-24T12:06:22.292Z,56.5
2022-11-24T12:07:38.515Z,56.2
2022-11-24T12:08:50.348Z,56
2022-11-24T12:10:10.002Z,54.9
2022-11-24T12:11:26.234Z,56.3
2022-11-24T12:12:38.078Z,59.6
2022-11-24T12:13:58.709Z,57
2022-11-24T12:15:14.938Z,56.7
2022-11-24T12:16:26.770Z,57.3
2022-11-24T12:17:43.009Z,57.2
2022-11-24T12:18:58.278Z,57
2022-11-24T12:20:13.514Z,58
2022-11-24T12:21:29.760Z,56.8
2022-11-24T12:22:49.416Z,60.1
2022-11-24T12:24:04.665Z,58.8
2022-11-24T12:25:16.490Z,56.3
2022-11-24T12:26:32.732Z,54.9
2022-11-24T12:27:48.971Z,57.2
2022-11-24T12:29:09.590Z,58.3
2022-11-24T12:30:21.428Z,59.7
2022-11-24T12:31:37.670Z,59.1
2022-11-24T12:32:53.913Z,56.3
2022-11-24T12:34:10.151Z,58.3
2022-11-24T12:35:26.377Z,58.1
2022-11-24T12:36:47.008Z,58
2022-11-24T12:38:03.235Z,58.9
2022-11-24T12:39:15.070Z,56.7
2022-11-24T12:40:34.730Z,58
2022-11-24T12:41:50.964Z,57.2
2022-11-24T12:43:02.802Z,60.2
2022-11-24T12:44:19.041Z,58.1
2022-11-24T12:45:39.678Z,58.3
2022-11-24T12:46:51.512Z,58
2022-11-24T12:48:07.740Z,58.6
2022-11-24T12:49:22.987Z,58.8
2022-11-24T12:50:38.241Z,57.6
2022-11-24T12:51:58.872Z,59.2
2022-11-24T12:53:10.710Z,56.7
2022-11-24T12:54:26.944Z,58.1
2022-11-24T12:55:47.592Z,57.6
2022-11-24T12:56:59.416Z,58.9
2022-11-24T12:58:15.667Z,56.7
2022-11-24T12:59:31.896Z,57.8
2022-11-24T13:00:48.118Z,57
2022-11-24T13:02:08.757Z,57.8
2022-11-24T13:03:20.586Z,58.1
2022-11-24T13:04:36.833Z,59.4
2022-11-24T13:05:53.057Z,56.7
2022-11-24T13:07:12.709Z,56
2022-11-24T13:08:28.957Z,56.3
2022-11-24T13:09:40.786Z,56.8
2022-11-24T13:10:57.013Z,57.2
2022-11-24T13:12:13.248Z,56.7
2022-11-24T13:13:29.483Z,58.4
2022-11-24T13:14:50.114Z,57.6
2022-11-24T13:16:05.381Z,55.7
2022-11-24T13:17:16.228Z,57.2
2022-11-24T13:18:31.497Z,58.1
2022-11-24T13:19:51.140Z,56.8
2022-11-24T13:21:02.000Z,58.3
2022-11-24T13:22:17.246Z,58.4
2022-11-24T13:23:33.470Z,58.8
2022-11-24T13:24:49.716Z,59.7
2022-11-24T13:26:05.948Z,59.2
2022-11-24T13:27:22.184Z,56.7
2022-11-24T13:28:38.409Z,56.5
2022-11-24T13:29:54.643Z,55.7
2022-11-24T13:31:10.890Z,55.7
2022-11-24T13:32:30.545Z,56.3
2022-11-24T13:33:42.375Z,58
2022-11-24T13:34:58.605Z,56.5
2022-11-24T13:36:14.848Z,56.7
2022-11-24T13:37:31.087Z,56.5
2022-11-24T13:38:51.706Z,55.7
2022-11-24T13:40:03.554Z,56
2022-11-24T13:41:19.778Z,55.5
2022-11-24T13:42:40.420Z,56.3
2022-11-24T13:43:52.254Z,56
2022-11-24T13:45:08.490Z,56.7
2022-11-24T13:46:29.115Z,55.2
2022-11-24T13:47:39.972Z,55.7
2022-11-24T13:48:55.223Z,55.7
2022-11-24T13:50:10.493Z,54.6
2022-11-24T13:51:25.736Z,54.6
2022-11-24T13:52:41.970Z,54.6
2022-11-24T13:54:02.601Z,54.6
2022-11-24T13:55:18.833Z,61.7
2022-11-24T13:56:30.669Z,53.9
2022-11-24T13:57:46.905Z,54.3
2022-11-24T13:59:03.157Z,54.6
2022-11-24T14:00:19.378Z,53
2022-11-24T14:01:35.614Z,53.4
2022-11-24T14:02:51.853Z,53.6
2022-11-24T14:04:08.089Z,53.8
2022-11-24T14:05:28.720Z,54.3
2022-11-24T14:06:40.567Z,54.7
2022-11-24T14:07:55.803Z,54.3
2022-11-24T14:09:16.444Z,55.5
2022-11-24T14:10:32.667Z,55.1
2022-11-24T14:11:44.518Z,56.5
2022-11-24T14:13:05.142Z,59.6
2022-11-24T14:14:16.977Z,54.4
2022-11-24T14:15:33.209Z,55.2
2022-11-24T14:16:52.863Z,57
2022-11-24T14:18:08.122Z,56
2022-11-24T14:19:18.989Z,54.9
2022-11-24T14:20:38.617Z,56.3
2022-11-24T14:21:54.860Z,56.5
2022-11-24T14:23:11.091Z,56.5
2022-11-24T14:24:27.334Z,57.6
2022-11-24T14:25:43.560Z,56.3
2022-11-24T14:26:55.396Z,56.8
2022-11-24T14:28:11.642Z,70
2022-11-24T14:29:27.864Z,55.1
2022-11-24T14:30:48.506Z,57.2
2022-11-24T14:32:04.732Z,55.2
2022-11-24T14:33:20.970Z,56.7
2022-11-24T14:34:32.808Z,55.1
2022-11-24T14:35:53.440Z,57
2022-11-24T14:37:04.308Z,56.5
2022-11-24T14:38:24.929Z,58
2022-11-24T14:39:36.760Z,56.5
2022-11-24T14:40:53.002Z,55.1
2022-11-24T14:42:09.234Z,56.3
2022-11-24T14:43:29.867Z,56.2
2022-11-24T14:44:41.713Z,56.3
2022-11-24T14:46:01.362Z,57.3
2022-11-24T14:47:16.607Z,55.5
2022-11-24T14:48:27.464Z,58
2022-11-24T14:49:42.728Z,58
2022-11-24T14:51:03.344Z,56.7
2022-11-24T14:52:15.195Z,57.2
2022-11-24T14:53:31.418Z,57.2
2022-11-24T14:54:52.052Z,58
2022-11-24T14:56:08.284Z,57.3
2022-11-24T14:57:20.134Z,56.3
2022-11-24T14:58:40.758Z,57.3
2022-11-24T14:59:56.992Z,57.6
2022-11-24T15:01:13.230Z,56.8
2022-11-24T15:02:29.462Z,55.4
2022-11-24T15:03:41.312Z,56.3
2022-11-24T15:04:57.530Z,58.4
2022-11-24T15:06:12.793Z,57.3
2022-11-24T15:07:29.027Z,57.2
2022-11-24T15:08:49.659Z,57
2022-11-24T15:10:05.895Z,56.2
2022-11-24T15:11:22.127Z,57.5
2022-11-24T15:12:33.965Z,57.8
2022-11-24T15:13:54.588Z,58.4
2022-11-24T15:15:05.462Z,59.2
2022-11-24T15:16:20.700Z,60.2
2022-11-24T15:17:40.353Z,59.7
2022-11-24T15:18:51.221Z,58.1
2022-11-24T15:20:07.452Z,58
2022-11-24T15:21:28.085Z,57.3
2022-11-24T15:22:44.320Z,56.7
2022-11-24T15:24:00.540Z,56.3
2022-11-24T15:25:12.380Z,56.8
2022-11-24T15:26:28.613Z,58.3
2022-11-24T15:27:44.850Z,56.3
2022-11-24T15:29:05.483Z,58.6
2022-11-24T15:30:17.318Z,56.5
2022-11-24T15:31:33.556Z,56.3
2022-11-24T15:32:49.800Z,55.1
2022-11-24T15:34:06.022Z,57
2022-11-24T15:35:21.293Z,60.7
2022-11-24T15:36:41.918Z,58
2022-11-24T15:37:53.755Z,56.7
2022-11-24T15:39:14.391Z,56.7
2022-11-24T15:40:30.627Z,55.9
2022-11-24T15:41:42.450Z,55.4
2022-11-24T15:43:03.096Z,56.7
2022-11-24T15:44:13.948Z,55.9
2022-11-24T15:45:33.607Z,56
2022-11-24T15:46:48.843Z,57.6
2022-11-24T15:47:59.704Z,56.7
2022-11-24T15:49:19.367Z,56.7
2022-11-24T15:50:30.223Z,55.7
2022-11-24T15:51:50.852Z,57
2022-11-24T15:53:02.684Z,56.5
2022-11-24T15:54:23.311Z,57.5
2022-11-24T15:55:35.153Z,55.1
2022-11-24T15:56:51.386Z,55.2
2022-11-24T15:58:07.616Z,55.9
2022-11-24T15:59:28.238Z,55.1
2022-11-24T16:00:44.474Z,59.4
2022-11-24T16:02:00.725Z,57
2022-11-24T16:03:16.942Z,56.3
2022-11-24T16:04:33.176Z,57
2022-11-24T16:05:49.425Z,56.7
2022-11-24T16:07:00.291Z,58
2022-11-24T16:08:20.898Z,56.3
2022-11-24T16:09:32.747Z,56.8
2022-11-24T16:10:48.992Z,57.3
2022-11-24T16:12:09.610Z,56.7
2022-11-24T16:13:21.450Z,57
2022-11-24T16:14:42.083Z,55.2
2022-11-24T16:15:52.958Z,56
2022-11-24T16:17:12.593Z,57.2
2022-11-24T16:18:28.819Z,56
2022-11-24T16:19:45.060Z,55.5
2022-11-24T16:20:56.914Z,56
2022-11-24T16:22:13.148Z,56.5
2022-11-24T16:23:29.385Z,56.3
2022-11-24T16:24:49.992Z,55.4
2022-11-24T16:26:06.236Z,56.5
2022-11-24T16:27:22.462Z,55.5
2022-11-24T16:28:38.712Z,57
2022-11-24T16:29:54.932Z,57
2022-11-24T16:31:06.789Z,57
2022-11-24T16:32:23.016Z,57.6
2022-11-24T16:33:42.666Z,62.1
2022-11-24T16:34:54.495Z,57.5
2022-11-24T16:36:10.744Z,59.4
2022-11-24T16:37:26.986Z,57.2
2022-11-24T16:38:43.204Z,60.2
2022-11-24T16:40:03.842Z,61
2022-11-24T16:41:20.063Z,59.2
2022-11-24T16:42:36.301Z,59.6
2022-11-24T16:48:57.473Z,58.6
2022-11-24T16:50:13.704Z,57.2
2022-11-24T16:52:46.181Z,57.6
2022-11-24T16:55:18.657Z,57
2022-11-24T16:56:34.892Z,59.1
2022-11-24T17:02:56.056Z,62
2022-11-24T17:04:12.292Z,58.3
2022-11-24T17:05:28.521Z,57.2
2022-11-24T17:08:01.001Z,56.3
2022-11-24T17:11:49.704Z,56.7
2022-11-24T17:15:38.412Z,56.7
2022-11-24T17:18:10.879Z,56.8
2022-11-24T17:19:27.117Z,56
2022-11-24T17:24:32.310Z,54.9
2022-11-24T17:27:04.899Z,57.2
2022-11-24T17:29:37.492Z,56
2022-11-24T17:30:53.793Z,57.2
2022-11-24T17:34:42.678Z,56.7
2022-11-24T17:35:58.971Z,58.1
2022-11-24T17:38:31.800Z,55.5
2022-11-24T17:39:48.201Z,58.1
2022-11-24T17:41:04.613Z,56.2
2022-11-24T17:43:37.429Z,57.2
2022-11-24T17:44:53.854Z,55.5
2022-11-24T17:47:26.667Z,58.3
2022-11-24T17:48:43.061Z,56.3